createdAt,value
2017-07-08T00:01:29.317Z,101078.05
2017-07-08T00:04:01.763Z,101079.86
2017-07-08T00:06:34.077Z,101089.91
2017-07-08T00:09:06.475Z,101091.16
2017-07-08T00:11:38.886Z,101092.08
2017-07-08T00:14:11.229Z,101086.53
2017-07-08T00:16:43.620Z,101084.72
2017-07-08T00:19:16.019Z,101086.44
2017-07-08T00:21:49.204Z,101080.98
2017-07-08T00:24:22.086Z,101074.70
2017-07-08T00:26:54.242Z,101078.30
2017-07-08T00:29:26.580Z,101080.81
2017-07-08T00:31:59.070Z,101085.22
2017-07-08T00:34:31.519Z,101078.66
2017-07-08T00:37:03.821Z,101075.35
2017-07-08T00:39:36.274Z,101083.80
2017-07-08T00:42:08.757Z,101077.34
2017-07-08T00:44:41.033Z,101086.09
2017-07-08T00:47:13.400Z,101075.70
2017-07-08T00:49:45.913Z,101073.54
2017-07-08T00:52:18.435Z,101071.59
2017-07-08T00:54:51.283Z,101072.53
2017-07-08T00:57:24.263Z,101075.43
2017-07-08T00:59:56.633Z,101077.46
2017-07-08T01:02:29.021Z,101082.40
2017-07-08T01:05:01.485Z,101085.13
2017-07-08T01:07:33.873Z,101079.75
2017-07-08T01:10:06.212Z,101080.85
2017-07-08T01:12:38.741Z,101080.11
2017-07-08T01:15:11.054Z,101084.02
2017-07-08T01:17:43.563Z,101085.17
2017-07-08T01:20:15.817Z,101084.64
2017-07-08T01:22:48.220Z,101083.23
2017-07-08T01:25:20.666Z,101084.78
2017-07-08T01:27:53.048Z,101083.22
2017-07-08T01:30:25.550Z,101083.53
2017-07-08T01:32:58.228Z,101088.20
2017-07-08T01:35:31.364Z,101078.82
2017-07-08T01:38:04.090Z,101079.70
2017-07-08T01:40:36.651Z,101085.06
2017-07-08T01:43:09.956Z,101071.82
2017-07-08T01:45:42.644Z,101072.48
2017-07-08T01:48:14.807Z,101067.20
2017-07-08T01:50:47.253Z,101061.02
2017-07-08T01:53:19.654Z,101060.67
2017-07-08T01:55:59.158Z,101062.96
2017-07-08T01:58:31.572Z,101055.88
2017-07-08T02:01:03.976Z,101059.53
2017-07-08T02:03:36.447Z,101061.85
2017-07-08T02:06:08.849Z,101056.80
2017-07-08T02:08:41.251Z,101061.58
2017-07-08T02:11:13.624Z,101057.89
2017-07-08T02:13:45.997Z,101050.36
2017-07-08T02:16:18.329Z,101066.41
2017-07-08T02:18:50.841Z,101061.64
2017-07-08T02:21:24.570Z,101060.05
2017-07-08T02:23:57.720Z,101064.53
2017-07-08T02:26:30.065Z,101067.70
2017-07-08T02:29:02.479Z,101067.91
2017-07-08T02:31:34.846Z,101071.81
2017-07-08T02:34:07.359Z,101064.94
2017-07-08T02:36:39.644Z,101080.94
2017-07-08T02:39:12.080Z,101080.37
2017-07-08T02:41:44.472Z,101084.28
2017-07-08T02:44:16.834Z,101086.27
2017-07-08T02:46:49.209Z,101087.61
2017-07-08T02:49:21.706Z,101098.97
2017-07-08T02:51:54.198Z,101091.16
2017-07-08T02:54:26.490Z,101089.05
2017-07-08T02:56:58.990Z,101089.53
2017-07-08T02:59:31.244Z,101092.62
2017-07-08T03:02:03.733Z,101088.91
2017-07-08T03:04:36.352Z,101088.95
2017-07-08T03:07:09.327Z,101090.94
2017-07-08T03:09:41.877Z,101082.71
2017-07-08T03:12:14.369Z,101089.78
2017-07-08T03:14:47.085Z,101091.63
2017-07-08T03:17:19.448Z,101096.60
2017-07-08T03:19:51.503Z,101094.52
2017-07-08T03:22:23.952Z,101107.01
2017-07-08T03:24:56.455Z,101104.80
2017-07-08T03:27:28.944Z,101108.47
2017-07-08T03:30:01.244Z,101100.29
2017-07-08T03:32:33.533Z,101103.72
2017-07-08T03:35:06.262Z,101104.13
2017-07-08T03:37:38.362Z,101098.06
2017-07-08T03:40:10.882Z,101104.41
2017-07-08T03:42:44.227Z,101106.58
2017-07-08T03:45:17.453Z,101104.38
2017-07-08T03:47:49.388Z,101097.63
2017-07-08T03:50:21.862Z,101100.22
2017-07-08T03:52:54.200Z,101103.70
2017-07-08T03:55:26.434Z,101114.13
2017-07-08T03:57:58.854Z,101107.13
2017-07-08T04:00:31.373Z,101113.95
2017-07-08T04:03:03.693Z,101107.44
2017-07-08T04:05:36.129Z,101108.01
2017-07-08T04:08:08.516Z,101107.44
2017-07-08T04:10:40.946Z,101114.70
2017-07-08T04:13:13.413Z,101114.13
2017-07-08T04:15:45.884Z,101121.58
2017-07-08T04:18:18.133Z,101123.41
2017-07-08T04:20:50.518Z,101127.20
2017-07-08T04:23:24.018Z,101133.98
2017-07-08T04:25:56.603Z,101129.73
2017-07-08T04:28:28.769Z,101123.52
2017-07-08T04:31:01.201Z,101126.86
2017-07-08T04:33:33.579Z,101127.83
2017-07-08T04:36:05.810Z,101131.31
2017-07-08T04:38:39.563Z,101136.02
2017-07-08T04:41:11.761Z,101138.61
2017-07-08T04:43:44.343Z,101146.63
2017-07-08T04:46:16.591Z,101144.12
2017-07-08T04:48:49.040Z,101147.88
2017-07-08T04:51:21.820Z,101144.74
2017-07-08T04:53:53.886Z,101145.50
2017-07-08T04:56:26.241Z,101143.42
2017-07-08T04:58:58.614Z,101143.64
2017-07-08T05:01:30.879Z,101139.14
2017-07-08T05:04:03.112Z,101139.42
2017-07-08T05:06:36.501Z,101140.77
2017-07-08T05:09:08.844Z,101139.41
2017-07-08T05:11:41.284Z,101133.52
2017-07-08T05:14:13.649Z,101132.07
2017-07-08T05:16:46.084Z,101132.50
2017-07-08T05:19:18.402Z,101131.67
2017-07-08T05:21:50.892Z,101137.17
2017-07-08T05:24:23.282Z,101136.83
2017-07-08T05:26:55.919Z,101130.48
2017-07-08T05:29:28.154Z,101133.04
2017-07-08T05:32:00.585Z,101131.32
2017-07-08T05:34:32.873Z,101129.47
2017-07-08T05:37:05.376Z,101129.25
2017-07-08T05:39:37.666Z,101134.12
2017-07-08T05:42:10.108Z,101129.38
2017-07-08T05:44:42.470Z,101136.69
2017-07-08T05:47:14.907Z,101133.13
2017-07-08T05:49:47.262Z,101127.17
2017-07-08T05:52:19.837Z,101122.54
2017-07-08T05:54:52.120Z,101129.81
2017-07-08T05:57:24.531Z,101131.31
2017-07-08T05:59:56.798Z,101129.42
2017-07-08T06:02:29.318Z,101123.70
2017-07-08T06:05:02.763Z,101117.87
2017-07-08T06:07:35.144Z,101121.77
2017-07-08T06:10:07.911Z,101123.72
2017-07-08T06:12:40.028Z,101126.41
2017-07-08T06:15:12.598Z,101117.92
2017-07-08T06:17:45.461Z,101128.56
2017-07-08T06:20:18.115Z,101124.05
2017-07-08T06:22:50.504Z,101119.16
2017-07-08T06:25:22.785Z,101119.70
2017-07-08T06:27:56.152Z,101128.07
2017-07-08T06:30:28.841Z,101130.78
2017-07-08T06:33:01.288Z,101132.12
2017-07-08T06:35:33.468Z,101130.66
2017-07-08T06:38:05.860Z,101137.06
2017-07-08T06:40:38.231Z,101149.63
2017-07-08T06:43:10.615Z,101154.10
2017-07-08T06:45:42.993Z,101153.39
2017-07-08T06:48:15.704Z,101156.38
2017-07-08T06:50:47.924Z,101160.64
2017-07-08T06:53:20.386Z,101164.95
2017-07-08T06:55:52.896Z,101161.17
2017-07-08T06:58:25.420Z,101167.05
2017-07-08T07:00:57.812Z,101173.28
2017-07-08T07:03:30.206Z,101178.33
2017-07-08T07:06:02.544Z,101173.09
2017-07-08T07:08:35.173Z,101176.72
2017-07-08T07:11:07.297Z,101172.59
2017-07-08T07:13:39.833Z,101168.78
2017-07-08T07:16:12.110Z,101191.61
2017-07-08T07:18:44.469Z,101191.61
2017-07-08T07:21:16.781Z,101188.97
2017-07-08T07:23:49.103Z,101203.00
2017-07-08T07:26:21.557Z,101205.55
2017-07-08T07:28:53.972Z,101205.45
2017-07-08T07:31:26.309Z,101207.12
2017-07-08T07:33:58.821Z,101202.28
2017-07-08T07:36:31.071Z,101205.09
2017-07-08T07:39:03.600Z,101199.39
2017-07-08T07:41:35.882Z,101197.98
2017-07-08T07:44:08.329Z,101193.79
2017-07-08T07:46:40.701Z,101188.42
2017-07-08T07:49:13.060Z,101187.91
2017-07-08T07:51:45.606Z,101185.55
2017-07-08T07:54:17.833Z,101185.64
2017-07-08T07:56:50.181Z,101176.80
2017-07-08T07:59:23.350Z,101180.72
2017-07-08T08:01:56.025Z,101176.20
2017-07-08T08:04:28.468Z,101175.13
2017-07-08T08:07:00.810Z,101164.17
2017-07-08T08:09:33.293Z,101172.39
2017-07-08T08:12:05.988Z,101166.57
2017-07-08T08:14:38.061Z,101169.83
2017-07-08T08:17:10.399Z,101166.08
2017-07-08T08:19:42.865Z,101172.61
2017-07-08T08:22:15.304Z,101166.16
2017-07-08T08:24:47.894Z,101174.56
2017-07-08T08:27:20.264Z,101173.94
2017-07-08T08:29:52.747Z,101171.34
2017-07-08T08:32:25.223Z,101160.30
2017-07-08T08:34:57.549Z,101167.20
2017-07-08T08:37:30.028Z,101165.61
2017-07-08T08:40:02.432Z,101163.20
2017-07-08T08:42:34.732Z,101161.59
2017-07-08T08:45:07.094Z,101161.08
2017-07-08T08:47:39.493Z,101154.98
2017-07-08T08:50:12.869Z,101161.98
2017-07-08T08:52:46.206Z,101160.05
2017-07-08T08:55:18.775Z,101161.67
2017-07-08T08:57:51.035Z,101169.47
2017-07-08T09:00:24.601Z,101169.16
2017-07-08T09:02:56.690Z,101166.88
2017-07-08T09:05:29.162Z,101168.11
2017-07-08T09:08:01.586Z,101171.03
2017-07-08T09:10:34.077Z,101171.87
2017-07-08T09:13:06.461Z,101170.08
2017-07-08T09:15:38.868Z,101174.62
2017-07-08T09:18:21.218Z,101172.45
2017-07-08T09:20:53.746Z,101168.01
2017-07-08T09:23:26.452Z,101168.14
2017-07-08T09:25:58.393Z,101177.91
2017-07-08T09:28:30.781Z,101181.63
2017-07-08T09:31:03.335Z,101178.94
2017-07-08T09:33:35.582Z,101171.89
2017-07-08T09:36:07.987Z,101177.81
2017-07-08T09:38:40.556Z,101177.41
2017-07-08T09:41:13.330Z,101179.67
2017-07-08T09:43:45.398Z,101184.61
2017-07-08T09:46:17.797Z,101185.39
2017-07-08T09:48:51.424Z,101181.75
2017-07-08T09:51:24.404Z,101181.21
2017-07-08T09:53:56.713Z,101175.72
2017-07-08T09:56:36.305Z,101178.98
2017-07-08T09:59:08.724Z,101170.09
2017-07-08T10:01:41.144Z,101166.93
2017-07-08T10:04:13.566Z,101165.06
2017-07-08T10:06:45.880Z,101169.83
2017-07-08T10:09:18.237Z,101169.14
2017-07-08T10:11:51.658Z,101170.80
2017-07-08T10:14:24.936Z,101177.05
2017-07-08T10:16:57.714Z,101176.28
2017-07-08T10:19:30.013Z,101177.19
2017-07-08T10:22:02.971Z,101167.05
2017-07-08T10:24:34.905Z,101170.77
2017-07-08T10:27:07.872Z,101168.28
2017-07-08T10:29:41.536Z,101165.25
2017-07-08T10:32:15.212Z,101173.03
2017-07-08T10:34:47.613Z,101173.34
2017-07-08T10:37:19.988Z,101180.56
2017-07-08T10:39:52.487Z,101180.47
2017-07-08T10:42:25.240Z,101178.30
2017-07-08T10:44:57.330Z,101176.59
2017-07-08T10:47:29.707Z,101184.34
2017-07-08T10:50:02.091Z,101180.73
2017-07-08T10:52:34.543Z,101181.64
2017-07-08T10:55:06.890Z,101183.70
2017-07-08T10:57:39.279Z,101181.02
2017-07-08T11:00:11.717Z,101181.47
2017-07-08T11:02:44.206Z,101175.95
2017-07-08T11:05:16.546Z,101184.67
2017-07-08T11:07:48.906Z,101177.36
2017-07-08T11:10:21.338Z,101190.72
2017-07-08T11:12:54.234Z,101187.41
2017-07-08T11:15:26.928Z,101181.30
2017-07-08T11:18:00.133Z,101182.39
2017-07-08T11:20:32.695Z,101187.89
2017-07-08T11:23:05.111Z,101185.89
2017-07-08T11:25:37.537Z,101182.43
2017-07-08T11:28:10.033Z,101184.22
2017-07-08T11:30:42.484Z,101183.67
2017-07-08T11:33:14.877Z,101188.05
2017-07-08T11:36:02.271Z,101184.18
2017-07-08T11:38:34.828Z,101178.23
2017-07-08T11:41:08.029Z,101214.11
2017-07-08T11:43:41.112Z,101189.41
2017-07-08T11:46:14.132Z,101186.48
2017-07-08T11:48:46.304Z,101185.37
2017-07-08T11:51:18.765Z,101189.79
2017-07-08T11:53:51.314Z,101181.50
2017-07-08T11:56:23.678Z,101178.88
2017-07-08T11:58:55.943Z,101182.59
2017-07-08T12:01:28.394Z,101181.41
2017-07-08T12:04:00.909Z,101180.86
2017-07-08T12:06:33.289Z,101175.38
2017-07-08T12:09:05.628Z,101178.09
2017-07-08T12:11:38.234Z,101173.74
2017-07-08T12:14:10.477Z,101169.63
2017-07-08T12:16:42.928Z,101168.69
2017-07-08T12:19:15.409Z,101169.97
2017-07-08T12:21:47.973Z,101167.66
2017-07-08T12:24:20.477Z,101172.44
2017-07-08T12:26:52.926Z,101173.66
2017-07-08T12:29:25.784Z,101166.17
2017-07-08T12:31:58.213Z,101166.60
2017-07-08T12:34:31.380Z,101165.64
2017-07-08T12:37:03.427Z,101171.44
2017-07-08T12:39:35.918Z,101173.85
2017-07-08T12:42:08.477Z,101178.67
2017-07-08T12:44:40.994Z,101175.69
2017-07-08T12:47:13.451Z,101180.11
2017-07-08T12:49:45.966Z,101179.50
2017-07-08T12:52:18.403Z,101184.27
2017-07-08T12:54:50.809Z,101178.12
2017-07-08T12:57:23.340Z,101192.67
2017-07-08T12:59:55.804Z,101186.92
2017-07-08T13:02:28.197Z,101188.73
2017-07-08T13:05:00.633Z,101185.12
2017-07-08T13:07:33.085Z,101182.63
2017-07-08T13:10:05.376Z,101181.41
2017-07-08T13:12:38.752Z,101185.30
2017-07-08T13:15:12.290Z,101183.09
2017-07-08T13:17:44.709Z,101177.36
2017-07-08T13:20:17.067Z,101184.35
2017-07-08T13:22:49.552Z,101172.45
2017-07-08T13:25:21.994Z,101180.06
2017-07-08T13:27:54.389Z,101180.08
2017-07-08T13:30:26.795Z,101193.16
2017-07-08T13:32:59.289Z,101193.52
2017-07-08T13:35:31.743Z,101205.27
2017-07-08T13:38:04.203Z,101207.63
2017-07-08T13:40:36.780Z,101201.06
2017-07-08T13:43:09.129Z,101203.94
2017-07-08T13:45:41.602Z,101203.43
2017-07-08T13:48:14.100Z,101197.20
2017-07-08T13:50:46.354Z,101199.91
2017-07-08T13:53:18.617Z,101192.92
2017-07-08T13:55:51.192Z,101184.50
2017-07-08T13:58:23.499Z,101186.02
2017-07-08T14:00:55.914Z,101185.80
2017-07-08T14:03:28.597Z,101191.79
2017-07-08T14:06:01.629Z,101188.50
2017-07-08T14:08:34.320Z,101197.17
2017-07-08T14:11:06.707Z,101192.61
2017-07-08T14:13:39.056Z,101185.03
2017-07-08T14:16:11.799Z,101196.08
2017-07-08T14:18:44.421Z,101191.11
2017-07-08T14:21:16.779Z,101193.70
2017-07-08T14:23:49.377Z,101189.80
2017-07-08T14:26:21.572Z,101195.20
2017-07-08T14:28:54.024Z,101196.37
2017-07-08T14:31:26.526Z,101195.59
2017-07-08T14:33:58.981Z,101198.72
2017-07-08T14:36:31.376Z,101198.66
2017-07-08T14:39:03.717Z,101200.51
2017-07-08T14:41:36.210Z,101199.44
2017-07-08T14:44:08.541Z,101198.72
2017-07-08T14:46:40.892Z,101192.02
2017-07-08T14:49:13.257Z,101200.95
2017-07-08T14:51:45.509Z,101198.24
2017-07-08T14:54:17.909Z,101192.97
2017-07-08T14:56:50.253Z,101190.31
2017-07-08T14:59:22.689Z,101186.94
2017-07-08T15:01:55.483Z,101188.55
2017-07-08T15:04:27.580Z,101189.95
2017-07-08T15:07:00.073Z,101191.98
2017-07-08T15:09:32.412Z,101188.90
2017-07-08T15:12:04.885Z,101172.09
2017-07-08T15:14:37.249Z,101180.22
2017-07-08T15:17:09.732Z,101172.09
2017-07-08T15:19:42.100Z,101172.92
2017-07-08T15:22:14.664Z,101171.34
2017-07-08T15:24:46.852Z,101170.94
2017-07-08T15:27:19.300Z,101160.69
2017-07-08T15:29:51.668Z,101169.87
2017-07-08T15:32:25.054Z,101163.20
2017-07-08T15:34:57.385Z,101157.81
2017-07-08T15:37:30.084Z,101158.06
2017-07-08T15:40:02.112Z,101155.41
2017-07-08T15:42:34.562Z,101149.94
2017-07-08T15:45:07.064Z,101154.02
2017-07-08T15:47:39.441Z,101150.18
2017-07-08T15:50:12.020Z,101147.43
2017-07-08T15:52:44.525Z,101140.00
2017-07-08T15:55:17.058Z,101141.28
2017-07-08T15:57:49.364Z,101135.00
2017-07-08T16:00:21.722Z,101133.92
2017-07-08T16:02:54.110Z,101139.79
2017-07-08T16:05:26.472Z,101132.34
2017-07-08T16:07:59.970Z,101126.68
2017-07-08T16:10:33.693Z,101129.23
2017-07-08T16:13:05.739Z,101125.01
2017-07-08T16:15:38.113Z,101129.03
2017-07-08T16:18:10.596Z,101129.45
2017-07-08T16:20:42.885Z,101129.77
2017-07-08T16:23:16.307Z,101142.14
2017-07-08T16:25:48.729Z,101138.50
2017-07-08T16:28:21.079Z,101138.42
2017-07-08T16:30:53.365Z,101133.92
2017-07-08T16:33:25.762Z,101136.02
2017-07-08T16:35:58.762Z,101135.03
2017-07-08T16:38:31.504Z,101127.68
2017-07-08T16:41:03.939Z,101129.54
2017-07-08T16:43:36.441Z,101134.00
2017-07-08T16:46:08.861Z,101128.58
2017-07-08T16:48:41.342Z,101133.55
2017-07-08T16:51:14.705Z,101128.45
2017-07-08T16:53:47.412Z,101133.08
2017-07-08T16:56:19.600Z,101131.07
2017-07-08T16:58:51.949Z,101131.00
2017-07-08T17:01:24.428Z,101130.68
2017-07-08T17:03:56.908Z,101129.80
2017-07-08T17:06:29.274Z,101136.58
2017-07-08T17:09:01.743Z,101133.72
2017-07-08T17:11:34.212Z,101133.18
2017-07-08T17:14:06.632Z,101134.41
2017-07-08T17:16:38.986Z,101126.96
2017-07-08T17:19:11.339Z,101130.95
2017-07-08T17:21:43.704Z,101123.08
2017-07-08T17:24:16.973Z,101130.08
2017-07-08T17:26:49.309Z,101125.44
2017-07-08T17:29:22.833Z,101123.95
2017-07-08T17:31:55.142Z,101124.45
2017-07-08T17:34:27.533Z,101132.58
2017-07-08T17:36:59.832Z,101139.69
2017-07-08T17:39:32.214Z,101140.47
2017-07-08T17:42:04.461Z,101139.39
2017-07-08T17:44:36.849Z,101139.20
2017-07-08T17:47:09.187Z,101140.86
2017-07-08T17:49:41.656Z,101141.87
2017-07-08T17:52:13.498Z,101151.58
2017-07-08T17:54:46.297Z,101147.88
2017-07-08T17:57:18.877Z,101140.89
2017-07-08T17:59:50.760Z,101145.24
2017-07-08T18:02:23.064Z,101150.02
2017-07-08T18:04:55.451Z,101145.08
2017-07-08T18:07:27.889Z,101148.45
2017-07-08T18:10:01.477Z,101148.74
2017-07-08T18:12:33.983Z,101153.13
2017-07-08T18:15:07.119Z,101151.66
2017-07-08T18:17:39.493Z,101158.75
2017-07-08T18:20:11.881Z,101160.48
2017-07-08T18:22:44.308Z,101163.20
2017-07-08T18:25:16.824Z,101165.28
2017-07-08T18:27:49.104Z,101166.67
2017-07-08T18:30:22.569Z,101159.88
2017-07-08T18:32:55.221Z,101161.28
2017-07-08T18:35:29.325Z,101163.17
2017-07-08T18:38:09.176Z,101164.00
2017-07-08T18:40:41.533Z,101158.38
2017-07-08T18:43:13.976Z,101156.09
2017-07-08T18:45:46.476Z,101154.68
2017-07-08T18:48:19.028Z,101158.83
2017-07-08T18:50:54.860Z,101155.33
2017-07-08T18:53:27.636Z,101159.00
2017-07-08T18:56:00.296Z,101156.23
2017-07-08T18:58:32.936Z,101170.05
2017-07-08T19:01:05.021Z,101157.58
2017-07-08T19:03:37.434Z,101154.06
2017-07-08T19:06:10.300Z,101149.20
2017-07-08T19:08:42.157Z,101147.87
2017-07-08T19:11:14.742Z,101145.67
2017-07-08T19:13:47.109Z,101137.16
2017-07-08T19:16:19.581Z,101139.89
2017-07-08T19:18:51.840Z,101132.06
2017-07-08T19:21:24.092Z,101132.99
2017-07-08T19:23:56.729Z,101136.93
2017-07-08T19:26:30.011Z,101141.44
2017-07-08T19:29:02.749Z,101146.83
2017-07-08T19:31:35.039Z,101146.69
2017-07-08T19:34:07.310Z,101143.37
2017-07-08T19:36:39.827Z,101147.44
2017-07-08T19:39:12.140Z,101155.52
2017-07-08T19:41:44.635Z,101149.13
2017-07-08T19:44:17.296Z,101146.38
2017-07-08T19:46:49.469Z,101158.45
2017-07-08T19:49:21.831Z,101165.53
2017-07-08T19:51:55.236Z,101160.91
2017-07-08T19:54:27.593Z,101160.44
2017-07-08T19:57:00.080Z,101161.65
2017-07-08T19:59:32.430Z,101166.28
2017-07-08T20:02:04.908Z,101167.89
2017-07-08T20:04:37.229Z,101163.61
2017-07-08T20:07:09.605Z,101174.16
2017-07-08T20:09:42.040Z,101178.45
2017-07-08T20:12:14.453Z,101181.70
2017-07-08T20:14:46.873Z,101175.55
2017-07-08T20:17:19.246Z,101185.13
2017-07-08T20:19:51.571Z,101181.35
2017-07-08T20:22:23.960Z,101183.16
2017-07-08T20:24:56.382Z,101182.39
2017-07-08T20:27:29.178Z,101188.14
2017-07-08T20:30:01.241Z,101192.77
2017-07-08T20:32:40.749Z,101190.88
2017-07-08T20:35:13.180Z,101190.11
2017-07-08T20:37:45.558Z,101187.27
2017-07-08T20:40:17.892Z,101191.81
2017-07-08T20:42:50.365Z,101188.14
2017-07-08T20:45:22.765Z,101189.76
2017-07-08T20:47:55.522Z,101206.06
2017-07-08T20:50:27.588Z,101203.80
2017-07-08T20:53:00.368Z,101216.35
2017-07-08T20:55:32.360Z,101208.67
2017-07-08T20:58:04.788Z,101211.76
2017-07-08T21:00:37.077Z,101210.56
2017-07-08T21:03:09.497Z,101211.40
2017-07-08T21:05:42.005Z,101210.84
2017-07-08T21:08:15.417Z,101216.34
2017-07-08T21:10:47.721Z,101215.66
2017-07-08T21:13:20.196Z,101214.13
2017-07-08T21:15:52.653Z,101212.81
2017-07-08T21:18:25.160Z,101218.23
2017-07-08T21:20:57.608Z,101230.69
2017-07-08T21:23:29.977Z,101226.44
2017-07-08T21:26:02.280Z,101235.14
2017-07-08T21:28:34.765Z,101223.01
2017-07-08T21:31:07.278Z,101229.16
2017-07-08T21:33:39.440Z,101230.73
2017-07-08T21:36:11.857Z,101225.93
2017-07-08T21:38:44.288Z,101229.25
2017-07-08T21:41:16.658Z,101224.17
2017-07-08T21:43:49.041Z,101229.36
2017-07-08T21:46:21.397Z,101229.42
2017-07-08T21:48:53.733Z,101237.33
2017-07-08T21:51:26.224Z,101233.55
2017-07-08T21:53:58.587Z,101234.88
2017-07-08T21:56:30.925Z,101240.48
2017-07-08T21:59:03.344Z,101229.59
2017-07-08T22:01:36.001Z,101229.61
2017-07-08T22:04:08.077Z,101228.98
2017-07-08T22:06:40.573Z,101240.66
2017-07-08T22:09:12.874Z,101241.98
2017-07-08T22:11:45.295Z,101242.86
2017-07-08T22:14:17.701Z,101243.17
2017-07-08T22:16:50.162Z,101247.09
2017-07-08T22:19:22.417Z,101241.71
2017-07-08T22:21:54.755Z,101242.91
2017-07-08T22:24:27.193Z,101238.02
2017-07-08T22:26:59.433Z,101240.39
2017-07-08T22:29:31.832Z,101236.69
2017-07-08T22:32:04.376Z,101230.51
2017-07-08T22:34:36.869Z,101216.05
2017-07-08T22:37:09.164Z,101215.83
2017-07-08T22:39:41.609Z,101215.64
2017-07-08T22:42:13.986Z,101214.88
2017-07-08T22:44:46.501Z,101216.41
2017-07-08T22:47:18.869Z,101215.63
2017-07-08T22:49:51.252Z,101216.70
2017-07-08T22:52:24.430Z,101214.94
2017-07-08T22:54:57.184Z,101216.50
2017-07-08T22:57:29.446Z,101221.16
2017-07-08T23:00:01.821Z,101217.09
2017-07-08T23:02:34.228Z,101210.81
2017-07-08T23:05:06.394Z,101212.45
2017-07-08T23:07:38.530Z,101217.73
2017-07-08T23:10:10.926Z,101226.58
2017-07-08T23:12:44.257Z,101226.08
2017-07-08T23:15:16.577Z,101226.34
2017-07-08T23:17:49.546Z,101224.78
2017-07-08T23:20:21.832Z,101230.30
2017-07-08T23:22:53.924Z,101231.10
2017-07-08T23:25:26.246Z,101234.08
2017-07-08T23:27:58.445Z,101228.91
2017-07-08T23:30:30.918Z,101230.84
2017-07-08T23:33:03.400Z,101230.27
2017-07-08T23:35:35.829Z,101223.67
2017-07-08T23:38:08.232Z,101220.58
2017-07-08T23:40:40.662Z,101225.53
2017-07-08T23:43:13.298Z,101221.86
2017-07-08T23:45:46.508Z,101217.05
2017-07-08T23:48:18.973Z,101219.13
2017-07-08T23:50:51.445Z,101223.30
2017-07-08T23:53:23.837Z,101220.54
2017-07-08T23:55:56.314Z,101227.55
2017-07-08T23:58:28.674Z,101225.98
